sensor_id;sensor_type;location;lat;lon;timestamp;pressure;altitude;pressure_sealevel;temperature;humidity
75891;BME280;64571;47.512;19.054;2023-02-15T00:00:03;102159.66;;;3.35;75.68
75891;BME280;64571;47.512;19.054;2023-02-15T00:03:06;102164.31;;;3.35;75.70
75891;BME280;64571;47.512;19.054;2023-02-15T00:06:09;102163.03;;;3.30;76.09
75891;BME280;64571;47.512;19.054;2023-02-15T00:09:11;102165.13;;;3.28;76.05
75891;BME280;64571;47.512;19.054;2023-02-15T00:12:15;102151.97;;;3.11;75.83
75891;BME280;64571;47.512;19.054;2023-02-15T00:15:18;102159.63;;;3.15;75.74
75891;BME280;64571;47.512;19.054;2023-02-15T00:18:21;102170.56;;;3.09;75.83
75891;BME280;64571;47.512;19.054;2023-02-15T00:21:23;102166.75;;;3.10;75.68
75891;BME280;64571;47.512;19.054;2023-02-15T00:24:26;102172.22;;;3.03;75.90
75891;BME280;64571;47.512;19.054;2023-02-15T00:27:28;102165.84;;;2.96;76.15
75891;BME280;64571;47.512;19.054;2023-02-15T00:30:31;102152.28;;;2.88;76.31
75891;BME280;64571;47.512;19.054;2023-02-15T00:33:34;102148.06;;;2.92;76.12
75891;BME280;64571;47.512;19.054;2023-02-15T00:36:37;102172.28;;;3.16;75.74
75891;BME280;64571;47.512;19.054;2023-02-15T00:39:39;102171.84;;;3.19;75.61
75891;BME280;64571;47.512;19.054;2023-02-15T00:42:42;102165.69;;;3.11;76.32
75891;BME280;64571;47.512;19.054;2023-02-15T00:45:45;102170.16;;;3.12;76.62
75891;BME280;64571;47.512;19.054;2023-02-15T00:48:48;102162.94;;;3.04;76.65
75891;BME280;64571;47.512;19.054;2023-02-15T00:51:51;102165.47;;;3.05;76.61
75891;BME280;64571;47.512;19.054;2023-02-15T00:54:54;102143.03;;;2.89;76.71
75891;BME280;64571;47.512;19.054;2023-02-15T00:57:56;102165.44;;;2.99;77.01
75891;BME280;64571;47.512;19.054;2023-02-15T01:01:04;102161.84;;;2.98;76.88
75891;BME280;64571;47.512;19.054;2023-02-15T01:04:07;102146.97;;;2.79;76.93
75891;BME280;64571;47.512;19.054;2023-02-15T01:07:10;102171.34;;;2.96;77.41
75891;BME280;64571;47.512;19.054;2023-02-15T01:10:13;102169.88;;;2.93;77.25
75891;BME280;64571;47.512;19.054;2023-02-15T01:13:16;102166.66;;;2.90;77.36
75891;BME280;64571;47.512;19.054;2023-02-15T01:16:19;102163.94;;;2.90;77.29
75891;BME280;64571;47.512;19.054;2023-02-15T01:19:22;102146.72;;;2.74;77.32
75891;BME280;64571;47.512;19.054;2023-02-15T01:22:25;102139.09;;;2.70;77.27
75891;BME280;64571;47.512;19.054;2023-02-15T01:25:29;102155.22;;;2.79;77.44
75891;BME280;64571;47.512;19.054;2023-02-15T01:28:31;102165.78;;;2.83;77.37
75891;BME280;64571;47.512;19.054;2023-02-15T01:31:35;102161.97;;;2.84;77.27
75891;BME280;64571;47.512;19.054;2023-02-15T01:34:38;102141.87;;;2.76;77.17
75891;BME280;64571;47.512;19.054;2023-02-15T01:37:41;102157.53;;;2.83;77.58
75891;BME280;64571;47.512;19.054;2023-02-15T01:40:43;102138.47;;;2.68;77.35
75891;BME280;64571;47.512;19.054;2023-02-15T01:43:49;102124.09;;;2.66;77.80
75891;BME280;64571;47.512;19.054;2023-02-15T01:46:53;102143.41;;;2.86;77.61
75891;BME280;64571;47.512;19.054;2023-02-15T01:50:02;102145.47;;;2.77;77.37
75891;BME280;64571;47.512;19.054;2023-02-15T01:56:22;102131.06;;;2.62;77.47
75891;BME280;64571;47.512;19.054;2023-02-15T01:59:26;102116.56;;;2.40;77.95
75891;BME280;64571;47.512;19.054;2023-02-15T02:02:29;102125.84;;;2.39;77.69
75891;BME280;64571;47.512;19.054;2023-02-15T02:05:32;102148.28;;;2.49;77.71
75891;BME280;64571;47.512;19.054;2023-02-15T02:08:35;102152.69;;;2.43;77.84
75891;BME280;64571;47.512;19.054;2023-02-15T02:11:38;102144.38;;;2.37;78.14
75891;BME280;64571;47.512;19.054;2023-02-15T02:14:42;102141.44;;;2.38;78.19
75891;BME280;64571;47.512;19.054;2023-02-15T02:18:07;102132.13;;;2.33;78.10
75891;BME280;64571;47.512;19.054;2023-02-15T02:27:50;102142.31;;;2.39;78.12
75891;BME280;64571;47.512;19.054;2023-02-15T02:34:30;102139.19;;;2.20;78.47
75891;BME280;64571;47.512;19.054;2023-02-15T02:37:43;102141.91;;;2.14;78.69
75891;BME280;64571;47.512;19.054;2023-02-15T02:50:42;102149.66;;;1.82;79.98
75891;BME280;64571;47.512;19.054;2023-02-15T02:53:45;102124.06;;;1.75;80.38
75891;BME280;64571;47.512;19.054;2023-02-15T02:56:49;102154.53;;;1.87;80.66
75891;BME280;64571;47.512;19.054;2023-02-15T02:59:56;102146.09;;;1.88;80.40
75891;BME280;64571;47.512;19.054;2023-02-15T03:03:38;102129.53;;;1.75;80.15
75891;BME280;64571;47.512;19.054;2023-02-15T03:06:57;102152.44;;;1.89;80.37
75891;BME280;64571;47.512;19.054;2023-02-15T03:10:03;102122.81;;;1.77;80.48
75891;BME280;64571;47.512;19.054;2023-02-15T03:13:07;102138.69;;;1.82;80.57
75891;BME280;64571;47.512;19.054;2023-02-15T03:16:11;102152.91;;;1.92;80.53
75891;BME280;64571;47.512;19.054;2023-02-15T03:19:31;102148.22;;;1.86;80.57
75891;BME280;64571;47.512;19.054;2023-02-15T03:22:50;102150.28;;;1.84;80.61
75891;BME280;64571;47.512;19.054;2023-02-15T03:26:05;102156.44;;;1.86;80.58
75891;BME280;64571;47.512;19.054;2023-02-15T03:29:09;102151.41;;;1.90;80.63
75891;BME280;64571;47.512;19.054;2023-02-15T03:32:14;102145.47;;;1.86;80.67
75891;BME280;64571;47.512;19.054;2023-02-15T03:35:21;102130.38;;;1.75;80.71
75891;BME280;64571;47.512;19.054;2023-02-15T03:38:34;102156.22;;;1.88;80.72
75891;BME280;64571;47.512;19.054;2023-02-15T03:41:46;102160.28;;;1.92;81.26
75891;BME280;64571;47.512;19.054;2023-02-15T03:44:57;102157.53;;;1.92;81.05
75891;BME280;64571;47.512;19.054;2023-02-15T03:48:01;102159.69;;;1.96;81.10
75891;BME280;64571;47.512;19.054;2023-02-15T03:51:08;102160.72;;;1.95;80.88
75891;BME280;64571;47.512;19.054;2023-02-15T03:54:33;102138.09;;;1.87;80.78
75891;BME280;64571;47.512;19.054;2023-02-15T03:57:46;102160.94;;;1.94;80.95
75891;BME280;64571;47.512;19.054;2023-02-15T04:01:30;102144.75;;;1.77;80.81
75891;BME280;64571;47.512;19.054;2023-02-15T04:05:05;102133.72;;;1.71;80.96
75891;BME280;64571;47.512;19.054;2023-02-15T04:08:08;102157.88;;;1.82;81.14
75891;BME280;64571;47.512;19.054;2023-02-15T04:11:11;102130.78;;;1.72;81.24
75891;BME280;64571;47.512;19.054;2023-02-15T04:14:13;102142.81;;;1.71;81.25
75891;BME280;64571;47.512;19.054;2023-02-15T04:17:36;102156.63;;;1.85;81.22
75891;BME280;64571;47.512;19.054;2023-02-15T04:20:38;102159.19;;;1.86;81.38
75891;BME280;64571;47.512;19.054;2023-02-15T04:24:00;102156.44;;;1.86;81.32
75891;BME280;64571;47.512;19.054;2023-02-15T04:27:21;102155.00;;;1.90;81.62
75891;BME280;64571;47.512;19.054;2023-02-15T04:30:24;102157.28;;;1.87;81.45
75891;BME280;64571;47.512;19.054;2023-02-15T04:33:27;102152.97;;;1.99;81.22
75891;BME280;64571;47.512;19.054;2023-02-15T04:36:30;102151.91;;;2.00;80.80
75891;BME280;64571;47.512;19.054;2023-02-15T04:39:33;102149.81;;;2.02;80.52
75891;BME280;64571;47.512;19.054;2023-02-15T04:42:35;102134.28;;;1.88;80.86
75891;BME280;64571;47.512;19.054;2023-02-15T04:45:38;102126.66;;;1.83;80.86
75891;BME280;64571;47.512;19.054;2023-02-15T04:48:41;102152.72;;;1.94;81.02
75891;BME280;64571;47.512;19.054;2023-02-15T04:51:43;102131.06;;;1.77;81.04
75891;BME280;64571;47.512;19.054;2023-02-15T04:54:46;102155.03;;;1.97;81.10
75891;BME280;64571;47.512;19.054;2023-02-15T04:57:48;102135.09;;;1.82;81.01
75891;BME280;64571;47.512;19.054;2023-02-15T05:00:54;102149.97;;;1.94;81.01
75891;BME280;64571;47.512;19.054;2023-02-15T05:03:57;102130.22;;;1.77;80.98
75891;BME280;64571;47.512;19.054;2023-02-15T05:07:00;102157.53;;;1.92;81.10
75891;BME280;64571;47.512;19.054;2023-02-15T05:10:02;102162.13;;;1.85;81.52
75891;BME280;64571;47.512;19.054;2023-02-15T05:13:05;102141.34;;;1.75;81.73
75891;BME280;64571;47.512;19.054;2023-02-15T05:16:08;102162.88;;;1.78;81.81
75891;BME280;64571;47.512;19.054;2023-02-15T05:19:10;102138.75;;;1.67;82.15
75891;BME280;64571;47.512;19.054;2023-02-15T05:22:13;102148.81;;;1.60;82.22
75891;BME280;64571;47.512;19.054;2023-02-15T05:25:16;102150.09;;;1.64;82.35
75891;BME280;64571;47.512;19.054;2023-02-15T05:28:37;102172.37;;;1.76;82.02
75891;BME280;64571;47.512;19.054;2023-02-15T05:31:43;102178.81;;;1.68;81.76
75891;BME280;64571;47.512;19.054;2023-02-15T05:34:49;102186.53;;;1.58;81.50
75891;BME280;64571;47.512;19.054;2023-02-15T05:37:52;102184.00;;;1.42;81.21
75891;BME280;64571;47.512;19.054;2023-02-15T05:40:54;102192.16;;;1.20;81.57
75891;BME280;64571;47.512;19.054;2023-02-15T05:43:57;102200.78;;;1.17;81.71
75891;BME280;64571;47.512;19.054;2023-02-15T05:46:59;102175.50;;;1.00;81.59
75891;BME280;64571;47.512;19.054;2023-02-15T05:50:02;102185.59;;;1.00;81.80
75891;BME280;64571;47.512;19.054;2023-02-15T05:53:04;102194.38;;;1.10;82.26
75891;BME280;64571;47.512;19.054;2023-02-15T05:56:09;102172.66;;;0.94;82.49
75891;BME280;64571;47.512;19.054;2023-02-15T05:59:11;102189.47;;;1.06;82.82
75891;BME280;64571;47.512;19.054;2023-02-15T06:02:15;102201.25;;;1.06;82.81
75891;BME280;64571;47.512;19.054;2023-02-15T06:05:17;102201.25;;;1.06;82.81
75891;BME280;64571;47.512;19.054;2023-02-15T06:08:20;102198.72;;;1.05;82.72
75891;BME280;64571;47.512;19.054;2023-02-15T06:11:23;102185.34;;;0.95;82.46
75891;BME280;64571;47.512;19.054;2023-02-15T06:14:25;102193.25;;;1.05;82.30
75891;BME280;64571;47.512;19.054;2023-02-15T06:17:28;102186.63;;;0.99;82.26
75891;BME280;64571;47.512;19.054;2023-02-15T06:20:30;102198.31;;;1.08;82.10
75891;BME280;64571;47.512;19.054;2023-02-15T06:23:33;102186.72;;;1.06;81.62
75891;BME280;64571;47.512;19.054;2023-02-15T06:26:35;102214.84;;;1.14;81.31
75891;BME280;64571;47.512;19.054;2023-02-15T06:29:38;102189.09;;;1.09;80.91
75891;BME280;64571;47.512;19.054;2023-02-15T06:32:40;102185.47;;;1.23;80.54
75891;BME280;64571;47.512;19.054;2023-02-15T06:35:44;102212.56;;;1.33;80.62
75891;BME280;64571;47.512;19.054;2023-02-15T06:38:47;102209.81;;;1.33;80.83
75891;BME280;64571;47.512;19.054;2023-02-15T06:41:50;102214.72;;;1.37;80.48
75891;BME280;64571;47.512;19.054;2023-02-15T06:44:52;102218.03;;;1.33;80.41
75891;BME280;64571;47.512;19.054;2023-02-15T06:47:55;102223.97;;;1.36;80.65
75891;BME280;64571;47.512;19.054;2023-02-15T06:50:57;102226.41;;;1.46;80.71
75891;BME280;64571;47.512;19.054;2023-02-15T06:54:00;102219.41;;;1.58;80.67
75891;BME280;64571;47.512;19.054;2023-02-15T06:57:02;102215.50;;;1.67;80.07
75891;BME280;64571;47.512;19.054;2023-02-15T07:00:05;102204.75;;;1.51;80.04
75891;BME280;64571;47.512;19.054;2023-02-15T07:03:08;102220.78;;;1.69;79.44
75891;BME280;64571;47.512;19.054;2023-02-15T07:06:11;102223.25;;;1.64;79.17
75891;BME280;64571;47.512;19.054;2023-02-15T07:09:14;102220.56;;;1.70;78.89
75891;BME280;64571;47.512;19.054;2023-02-15T07:12:16;102218.09;;;1.75;78.90
75891;BME280;64571;47.512;19.054;2023-02-15T07:15:38;102210.06;;;1.74;78.99
75891;BME280;64571;47.512;19.054;2023-02-15T07:18:40;102217.38;;;1.88;79.02
75891;BME280;64571;47.512;19.054;2023-02-15T07:21:43;102208.06;;;1.83;78.79
75891;BME280;64571;47.512;19.054;2023-02-15T07:24:47;102226.06;;;2.13;78.58
75891;BME280;64571;47.512;19.054;2023-02-15T07:27:59;102202.81;;;2.09;78.27
75891;BME280;64571;47.512;19.054;2023-02-15T07:31:03;102198.69;;;2.20;77.75
75891;BME280;64571;47.512;19.054;2023-02-15T07:34:06;102217.50;;;2.51;77.25
75891;BME280;64571;47.512;19.054;2023-02-15T07:37:09;102219.28;;;2.65;76.87
75891;BME280;64571;47.512;19.054;2023-02-15T07:40:12;102225.31;;;2.75;76.40
75891;BME280;64571;47.512;19.054;2023-02-15T07:43:15;102215.69;;;2.93;75.88
75891;BME280;64571;47.512;19.054;2023-02-15T07:46:17;102223.56;;;3.02;75.64
75891;BME280;64571;47.512;19.054;2023-02-15T07:49:21;102197.09;;;2.95;75.35
75891;BME280;64571;47.512;19.054;2023-02-15T07:52:25;102219.16;;;3.15;75.31
75891;BME280;64571;47.512;19.054;2023-02-15T07:55:28;102210.13;;;3.21;75.21
75891;BME280;64571;47.512;19.054;2023-02-15T07:58:30;102211.22;;;3.33;74.63
75891;BME280;64571;47.512;19.054;2023-02-15T08:01:52;102215.47;;;3.36;74.65
75891;BME280;64571;47.512;19.054;2023-02-15T08:04:56;102212.34;;;3.45;74.40
75891;BME280;64571;47.512;19.054;2023-02-15T08:07:58;102202.87;;;3.61;73.72
75891;BME280;64571;47.512;19.054;2023-02-15T08:11:03;102194.84;;;3.73;73.23
75891;BME280;64571;47.512;19.054;2023-02-15T08:14:27;102200.84;;;4.03;72.66
75891;BME280;64571;47.512;19.054;2023-02-15T08:17:29;102198.31;;;4.15;71.81
75891;BME280;64571;47.512;19.054;2023-02-15T08:20:32;102172.09;;;4.19;71.46
75891;BME280;64571;47.512;19.054;2023-02-15T08:23:34;102194.28;;;4.44;71.01
75891;BME280;64571;47.512;19.054;2023-02-15T08:26:38;102184.94;;;4.58;70.35
75891;BME280;64571;47.512;19.054;2023-02-15T08:29:43;102194.44;;;4.75;69.67
75891;BME280;64571;47.512;19.054;2023-02-15T08:32:46;102189.97;;;4.81;69.34
75891;BME280;64571;47.512;19.054;2023-02-15T08:35:48;102183.19;;;4.97;69.12
75891;BME280;64571;47.512;19.054;2023-02-15T08:38:51;102181.84;;;5.13;68.85
75891;BME280;64571;47.512;19.054;2023-02-15T08:41:54;102187.09;;;5.21;68.16
75891;BME280;64571;47.512;19.054;2023-02-15T08:44:56;102171.94;;;5.43;67.59
75891;BME280;64571;47.512;19.054;2023-02-15T08:47:59;102178.69;;;5.54;67.18
75891;BME280;64571;47.512;19.054;2023-02-15T08:51:09;102174.62;;;5.63;67.09
75891;BME280;64571;47.512;19.054;2023-02-15T08:54:18;102172.56;;;5.83;66.67
75891;BME280;64571;47.512;19.054;2023-02-15T08:57:21;102177.41;;;5.95;65.84
75891;BME280;64571;47.512;19.054;2023-02-15T09:00:23;102160.75;;;6.08;65.53
75891;BME280;64571;47.512;19.054;2023-02-15T09:03:27;102157.47;;;6.18;65.22
75891;BME280;64571;47.512;19.054;2023-02-15T09:06:31;102176.50;;;6.51;64.83
75891;BME280;64571;47.512;19.054;2023-02-15T09:09:33;102177.47;;;6.63;64.21
75891;BME280;64571;47.512;19.054;2023-02-15T09:12:36;102153.88;;;6.60;64.04
75891;BME280;64571;47.512;19.054;2023-02-15T09:15:38;102166.44;;;6.81;63.82
75891;BME280;64571;47.512;19.054;2023-02-15T09:18:41;102173.72;;;6.94;63.59
75891;BME280;64571;47.512;19.054;2023-02-15T09:21:43;102164.34;;;6.95;63.40
75891;BME280;64571;47.512;19.054;2023-02-15T09:24:46;102168.38;;;6.56;64.49
75891;BME280;64571;47.512;19.054;2023-02-15T09:27:49;102173.13;;;6.49;64.85
75891;BME280;64571;47.512;19.054;2023-02-15T09:30:51;102161.63;;;6.70;64.35
75891;BME280;64571;47.512;19.054;2023-02-15T09:33:55;102164.94;;;6.79;64.11
75891;BME280;64571;47.512;19.054;2023-02-15T09:36:58;102156.91;;;6.77;63.74
75891;BME280;64571;47.512;19.054;2023-02-15T09:40:00;102166.56;;;6.87;63.59
75891;BME280;64571;47.512;19.054;2023-02-15T09:43:12;102149.38;;;7.03;63.49
75891;BME280;64571;47.512;19.054;2023-02-15T10:03:01;102133.34;;;7.42;62.26
75891;BME280;64571;47.512;19.054;2023-02-15T10:13:27;102111.06;;;7.78;61.11
75891;BME280;64571;47.512;19.054;2023-02-15T10:16:48;102123.16;;;7.96;61.05
75891;BME280;64571;47.512;19.054;2023-02-15T10:23:49;102123.16;;;7.96;59.96
75891;BME280;64571;47.512;19.054;2023-02-15T10:27:04;102114.25;;;8.05;59.97
75891;BME280;64571;47.512;19.054;2023-02-15T10:30:31;102113.31;;;8.23;59.29
75891;BME280;64571;47.512;19.054;2023-02-15T10:33:41;102116.94;;;8.12;59.13
75891;BME280;64571;47.512;19.054;2023-02-15T10:53:48;102110.97;;;8.39;58.53
75891;BME280;64571;47.512;19.054;2023-02-15T11:00:23;102094.53;;;8.72;57.61
75891;BME280;64571;47.512;19.054;2023-02-15T11:06:50;102081.03;;;8.64;57.25
75891;BME280;64571;47.512;19.054;2023-02-15T11:10:12;102069.84;;;8.71;57.10
75891;BME280;64571;47.512;19.054;2023-02-15T11:13:22;102078.59;;;8.79;56.74
75891;BME280;64571;47.512;19.054;2023-02-15T11:16:32;102049.47;;;8.65;56.64
75891;BME280;64571;47.512;19.054;2023-02-15T11:20:12;102060.41;;;8.83;56.45
75891;BME280;64571;47.512;19.054;2023-02-15T11:23:13;102047.91;;;8.69;56.63
75891;BME280;64571;47.512;19.054;2023-02-15T11:26:29;102043.09;;;8.65;56.56
75891;BME280;64571;47.512;19.054;2023-02-15T11:32:43;102051.69;;;8.92;56.03
75891;BME280;64571;47.512;19.054;2023-02-15T11:35:51;102048.13;;;9.08;55.79
75891;BME280;64571;47.512;19.054;2023-02-15T11:39:02;102044.47;;;9.19;55.72
75891;BME280;64571;47.512;19.054;2023-02-15T11:42:13;102032.78;;;9.17;55.14
75891;BME280;64571;47.512;19.054;2023-02-15T11:45:22;102029.66;;;9.13;55.48
75891;BME280;64571;47.512;19.054;2023-02-15T11:48:29;102026.25;;;9.23;55.24
75891;BME280;64571;47.512;19.054;2023-02-15T11:51:34;102023.56;;;9.28;56.14
75891;BME280;64571;47.512;19.054;2023-02-15T11:54:41;102004.84;;;9.07;55.60
75891;BME280;64571;47.512;19.054;2023-02-15T12:01:24;102020.47;;;9.42;54.83
75891;BME280;64571;47.512;19.054;2023-02-15T12:04:40;102020.78;;;9.45;54.67
75891;BME280;64571;47.512;19.054;2023-02-15T12:11:02;102011.66;;;9.61;54.62
75891;BME280;64571;47.512;19.054;2023-02-15T12:14:12;102007.44;;;9.76;54.17
75891;BME280;64571;47.512;19.054;2023-02-15T12:17:20;101998.59;;;9.62;54.08
75891;BME280;64571;47.512;19.054;2023-02-15T12:20:33;101995.25;;;9.60;54.29
75891;BME280;64571;47.512;19.054;2023-02-15T12:24:01;101996.44;;;9.64;54.27
75891;BME280;64571;47.512;19.054;2023-02-15T12:27:15;101988.03;;;9.42;54.36
75891;BME280;64571;47.512;19.054;2023-02-15T12:33:39;101985.72;;;9.89;53.31
75891;BME280;64571;47.512;19.054;2023-02-15T12:36:48;101986.25;;;9.86;53.29
75891;BME280;64571;47.512;19.054;2023-02-15T12:40:04;101969.66;;;9.75;53.21
75891;BME280;64571;47.512;19.054;2023-02-15T12:46:34;101973.44;;;9.85;53.79
75891;BME280;64571;47.512;19.054;2023-02-15T12:49:40;101962.94;;;9.87;53.47
75891;BME280;64571;47.512;19.054;2023-02-15T12:52:51;101968.41;;;9.82;53.82
75891;BME280;64571;47.512;19.054;2023-02-15T12:55:56;101943.09;;;9.79;53.54
75891;BME280;64571;47.512;19.054;2023-02-15T12:59:13;101951.97;;;9.98;53.12
75891;BME280;64571;47.512;19.054;2023-02-15T13:02:28;101932.38;;;9.87;53.31
75891;BME280;64571;47.512;19.054;2023-02-15T13:08:44;101945.84;;;9.96;53.16
75891;BME280;64571;47.512;19.054;2023-02-15T13:11:48;101936.50;;;10.24;52.75
75891;BME280;64571;47.512;19.054;2023-02-15T13:14:53;101924.31;;;10.08;52.92
75891;BME280;64571;47.512;19.054;2023-02-15T13:18:01;101917.59;;;10.04;52.55
75891;BME280;64571;47.512;19.054;2023-02-15T13:21:26;101910.38;;;10.03;52.50
75891;BME280;64571;47.512;19.054;2023-02-15T13:24:35;101924.63;;;9.89;52.51
75891;BME280;64571;47.512;19.054;2023-02-15T13:27:41;101900.47;;;9.90;52.28
75891;BME280;64571;47.512;19.054;2023-02-15T13:30:47;101899.13;;;9.93;52.44
75891;BME280;64571;47.512;19.054;2023-02-15T13:33:58;101915.94;;;10.03;52.60
75891;BME280;64571;47.512;19.054;2023-02-15T13:37:11;101890.84;;;9.98;52.29
75891;BME280;64571;47.512;19.054;2023-02-15T13:40:32;101909.47;;;10.19;52.00
75891;BME280;64571;47.512;19.054;2023-02-15T13:43:52;101898.84;;;9.94;52.26
75891;BME280;64571;47.512;19.054;2023-02-15T13:47:21;101909.66;;;10.12;52.37
75891;BME280;64571;47.512;19.054;2023-02-15T13:50:58;101902.13;;;10.30;52.15
75891;BME280;64571;47.512;19.054;2023-02-15T14:01:17;101895.69;;;10.24;51.94
75891;BME280;64571;47.512;19.054;2023-02-15T14:11:03;101892.75;;;10.14;51.49
75891;BME280;64571;47.512;19.054;2023-02-15T14:21:03;101897.59;;;10.02;51.96
75891;BME280;64571;47.512;19.054;2023-02-15T14:24:24;101895.91;;;10.01;52.23
75891;BME280;64571;47.512;19.054;2023-02-15T14:31:00;101897.87;;;9.83;52.57
75891;BME280;64571;47.512;19.054;2023-02-15T14:38:02;101897.84;;;9.45;53.67
75891;BME280;64571;47.512;19.054;2023-02-15T14:44:29;101912.00;;;9.60;53.66
75891;BME280;64571;47.512;19.054;2023-02-15T14:47:40;101903.91;;;9.58;53.50
75891;BME280;64571;47.512;19.054;2023-02-15T14:50:47;101889.19;;;9.58;53.43
75891;BME280;64571;47.512;19.054;2023-02-15T14:53:49;101897.34;;;9.48;53.64
75891;BME280;64571;47.512;19.054;2023-02-15T15:00:36;101906.09;;;9.39;54.23
75891;BME280;64571;47.512;19.054;2023-02-15T15:03:50;101872.47;;;9.36;54.24
75891;BME280;64571;47.512;19.054;2023-02-15T15:11:13;101888.13;;;9.25;54.67
75891;BME280;64571;47.512;19.054;2023-02-15T15:14:44;101885.00;;;9.22;54.97
75891;BME280;64571;47.512;19.054;2023-02-15T15:17:59;101889.91;;;9.15;55.45
75891;BME280;64571;47.512;19.054;2023-02-15T15:21:02;101882.91;;;9.12;55.56
75891;BME280;64571;47.512;19.054;2023-02-15T15:24:06;101880.28;;;8.88;56.13
75891;BME280;64571;47.512;19.054;2023-02-15T15:51:30;101887.66;;;8.38;59.32
75891;BME280;64571;47.512;19.054;2023-02-15T15:54:33;101880.19;;;8.26;59.74
75891;BME280;64571;47.512;19.054;2023-02-15T15:57:41;101874.28;;;8.23;59.89
75891;BME280;64571;47.512;19.054;2023-02-15T16:04:11;101877.94;;;8.11;60.48
75891;BME280;64571;47.512;19.054;2023-02-15T16:10:28;101866.06;;;7.99;61.53
75891;BME280;64571;47.512;19.054;2023-02-15T16:13:33;101873.53;;;7.99;61.82
75891;BME280;64571;47.512;19.054;2023-02-15T16:16:36;101875.97;;;7.83;62.52
75891;BME280;64571;47.512;19.054;2023-02-15T16:19:42;101874.53;;;7.81;62.88
75891;BME280;64571;47.512;19.054;2023-02-15T16:22:48;101866.84;;;7.71;63.12
75891;BME280;64571;47.512;19.054;2023-02-15T16:25:54;101874.41;;;7.64;63.44
75891;BME280;64571;47.512;19.054;2023-02-15T16:29:15;101869.97;;;7.63;63.34
75891;BME280;64571;47.512;19.054;2023-02-15T16:35:23;101876.47;;;7.57;63.81
75891;BME280;64571;47.512;19.054;2023-02-15T16:41:48;101881.66;;;7.53;64.15
75891;BME280;64571;47.512;19.054;2023-02-15T16:44:55;101856.03;;;7.34;64.40
75891;BME280;64571;47.512;19.054;2023-02-15T16:48:05;101877.78;;;7.43;64.59
75891;BME280;64571;47.512;19.054;2023-02-15T16:51:18;101882.00;;;7.33;65.01
75891;BME280;64571;47.512;19.054;2023-02-15T16:54:24;101883.22;;;7.26;65.19
75891;BME280;64571;47.512;19.054;2023-02-15T16:57:34;101880.53;;;7.19;65.50
75891;BME280;64571;47.512;19.054;2023-02-15T17:00:38;101866.81;;;7.01;65.73
75891;BME280;64571;47.512;19.054;2023-02-15T17:03:43;101887.50;;;7.10;65.76
75891;BME280;64571;47.512;19.054;2023-02-15T17:07:22;101885.91;;;7.02;66.08
75891;BME280;64571;47.512;19.054;2023-02-15T17:13:29;101887.00;;;6.90;66.46
75891;BME280;64571;47.512;19.054;2023-02-15T17:17:22;101895.88;;;6.92;66.54
75891;BME280;64571;47.512;19.054;2023-02-15T17:20:18;101899.09;;;6.89;66.79
75891;BME280;64571;47.512;19.054;2023-02-15T17:23:40;101869.88;;;6.69;66.93
75891;BME280;64571;47.512;19.054;2023-02-15T17:26:49;101893.94;;;6.80;67.20
75891;BME280;64571;47.512;19.054;2023-02-15T17:30:12;101872.03;;;6.67;67.31
75891;BME280;64571;47.512;19.054;2023-02-15T17:33:25;101874.19;;;6.65;67.52
75891;BME280;64571;47.512;19.054;2023-02-15T17:36:31;101894.87;;;6.74;67.56
75891;BME280;64571;47.512;19.054;2023-02-15T17:39:34;101875.72;;;6.61;67.62
75891;BME280;64571;47.512;19.054;2023-02-15T17:42:36;101891.97;;;6.69;67.71
75891;BME280;64571;47.512;19.054;2023-02-15T17:45:48;101884.16;;;6.66;67.91
75891;BME280;64571;47.512;19.054;2023-02-15T17:48:53;101888.47;;;6.62;68.10
75891;BME280;64571;47.512;19.054;2023-02-15T17:51:57;101883.66;;;6.57;68.16
75891;BME280;64571;47.512;19.054;2023-02-15T17:55:11;101867.56;;;6.54;68.13
75891;BME280;64571;47.512;19.054;2023-02-15T17:58:33;101884.00;;;6.61;68.23
75891;BME280;64571;47.512;19.054;2023-02-15T18:01:39;101882.59;;;6.58;68.27
75891;BME280;64571;47.512;19.054;2023-02-15T18:05:02;101872.31;;;6.47;68.25
75891;BME280;64571;47.512;19.054;2023-02-15T18:08:26;101869.09;;;6.50;68.31
75891;BME280;64571;47.512;19.054;2023-02-15T18:11:48;101871.94;;;6.44;68.25
75891;BME280;64571;47.512;19.054;2023-02-15T18:14:52;101895.41;;;6.53;68.60
75891;BME280;64571;47.512;19.054;2023-02-15T18:17:56;101861.00;;;6.37;68.62
75891;BME280;64571;47.512;19.054;2023-02-15T18:20:58;101867.34;;;6.38;68.80
75891;BME280;64571;47.512;19.054;2023-02-15T18:24:01;101856.78;;;6.34;68.90
75891;BME280;64571;47.512;19.054;2023-02-15T18:27:04;101876.53;;;6.50;69.23
75891;BME280;64571;47.512;19.054;2023-02-15T18:30:16;101881.09;;;6.44;69.20
75891;BME280;64571;47.512;19.054;2023-02-15T18:33:28;101880.22;;;6.44;69.28
75891;BME280;64571;47.512;19.054;2023-02-15T18:36:43;101865.62;;;6.25;69.27
75891;BME280;64571;47.512;19.054;2023-02-15T18:39:48;101884.87;;;6.31;69.26
75891;BME280;64571;47.512;19.054;2023-02-15T18:42:51;101879.97;;;6.15;69.35
75891;BME280;64571;47.512;19.054;2023-02-15T18:45:54;101878.38;;;6.07;69.59
75891;BME280;64571;47.512;19.054;2023-02-15T18:48:57;101882.31;;;6.00;69.74
75891;BME280;64571;47.512;19.054;2023-02-15T18:52:00;101887.81;;;6.00;69.80
75891;BME280;64571;47.512;19.054;2023-02-15T18:58:21;101873.47;;;5.91;70.04
75891;BME280;64571;47.512;19.054;2023-02-15T19:01:26;101879.41;;;5.95;70.16
75891;BME280;64571;47.512;19.054;2023-02-15T19:04:29;101884.72;;;5.90;70.28
75891;BME280;64571;47.512;19.054;2023-02-15T19:07:35;101874.34;;;5.92;70.20
75891;BME280;64571;47.512;19.054;2023-02-15T19:10:37;101875.38;;;5.91;70.24
75891;BME280;64571;47.512;19.054;2023-02-15T19:13:40;101874.53;;;5.90;70.29
75891;BME280;64571;47.512;19.054;2023-02-15T19:16:42;101859.44;;;5.74;70.57